• Join FlightAware (Why Join?)
  • Login
  • US Flag 
12:05AM EDT


 

Airport Tracker/Info


-or-


 

Live Flight TrackerFlight Track Log ✈ SWA561 ✈ 07-Apr-2013 ✈ KLAX - KSFO

Flight Track Log - Related Links

Times and Time Zones

All times are in EDT time to prevent confusion due to time zone crossing. See the SWA561 flight status page for this flight to view local times or setup timezone preferences in your user account.

Time Position Orientation Groundspeed Altitude Reporting Facility
EDT Latitude Longitude Course Direction KTS MPH feet Rate Location/Type
11:31PM 33.9444 -118.4692 287° West 177 204 1,900  Level Los Angeles Center
11:32PM 33.9369 -118.5489 264° West 231 266 4,900 2,940 Climbing Los Angeles Center
11:33PM 33.9292 -118.6375 264° West 263 303 8,000 2,880 Climbing Los Angeles Center
11:34PM 33.9169 -118.7361 262° West 276 318 10,900 2,160 Climbing Los Angeles Center
11:35PM 33.9081 -118.8308 264° West 334 384 12,500 2,820 Climbing Los Angeles Center
11:36PM 34.0868 -118.9473 287° West  Level FlightAware Approximate
11:36PM 33.9358 -118.9658 284° West 347 399 16,800  Level Los Angeles Center
11:37PM 33.9978 -119.0617 308° West 369 425 19,600 2,700 Climbing Los Angeles Center
11:38PM 34.0744 -119.1489 317° Northwest 376 433 22,400 2,400 Climbing Los Angeles Center
11:39PM 34.1522 -119.2386 316° Northwest 384 442 24,600 2,100 Climbing Los Angeles Center
11:40PM 34.2325 -119.3314 316° Northwest 397 457 26,800 1,980 Climbing Los Angeles Center
11:41PM 34.3133 -119.4256 316° Northwest 402 463 28,800 2,340 Climbing Los Angeles Center
11:42PM 34.3931 -119.5158 317° Northwest 393 452 31,700 2,700 Climbing Los Angeles Center
11:43PM 34.4794 -119.6178 316° Northwest 365 420 34,500 1,980 Climbing Los Angeles Center
11:44PM 34.5506 -119.6994 317° Northwest 354 407 35,800 720 Climbing Los Angeles Center
11:45PM 34.6186 -119.7764 317° Northwest 360 414 36,000 60 Climbing Los Angeles Center
11:46PM 34.6936 -119.8622 317° Northwest 369 425 36,000 -60 Level Los Angeles Center
11:47PM 34.7817 -119.9644 316° Northwest 366 421 35,900  Descending Los Angeles Center
11:48PM 34.8547 -120.0506 316° Northwest 366 421 36,000  Climbing Los Angeles Center
11:49PM 34.9222 -120.1283 317° Northwest 367 422 36,000  Level Los Angeles Center
11:50PM 34.9939 -120.2131 316° Northwest 363 418 36,000  Level Los Angeles Center
11:51PM 35.0806 -120.3156 316° Northwest 362 417 36,000  Level Los Angeles Center
11:52PM 35.1531 -120.3994 317° Northwest 361 415 36,000  Level Los Angeles Center
11:53PM 35.2233 -120.4853 315° West 360 414 36,000 -120 Level Los Angeles Center
11:54PM 35.3078 -120.5858 316° Northwest 356 410 35,800 -600 Descending Los Angeles Center
11:56PM 35.3775 -120.6681 316° Northwest 351 404 34,800 -1,080 Descending Los Angeles Center
11:56PM 35.4008 -120.6981 314° West 330 380 34,400 -660 Descending Oakland Center
11:57PM 35.4675 -120.7764 316° Northwest 326 375 34,000 -240 Descending Oakland Center
11:58PM 35.5344 -120.8569 316° Northwest 333 383 34,000  Level Oakland Center
11:59PM 35.6014 -120.9383 315° West 336 387 34,000  Level Oakland Center
12:00AM 35.6681 -121.0194 315° West 336 387 34,000  Level Oakland Center
12:01AM 35.7353 -121.0997 316° Northwest 337 388 34,000  Level Oakland Center
12:02AM 35.8028 -121.1800 316° Northwest 337 388 34,000  Level Oakland Center
12:03AM 35.8683 -121.2619 315° West 336 387 34,000 -120 Level Oakland Center
12:04AM 35.9306 -121.3447 313° West 329 379 33,800 -840 Descending Oakland Center
12:05AM 35.9392 -121.4822 274° West 335 386 32,400 -1,200 Descending Oakland Center
12:06AM 35.9453 -121.5903 274° West 322 371 31,400 -1,020 Descending Oakland Center
12:07AM 35.9517 -121.6964 274° West 315 362 30,400 -1,080 Descending Oakland Center
12:08AM 35.9983 -121.7675 309° West 308 354 29,300 -1,080 Descending Oakland Center
12:09AM 36.0817 -121.7869 349° North 305 351 28,300 -960 Descending Oakland Center
12:10AM 36.1631 -121.8097 347° North 306 352 27,400 -960 Descending Oakland Center
12:11AM 36.2439 -121.8314 348° North 301 346 26,400 -1,080 Descending Oakland Center
12:12AM 36.3253 -121.8522 348° North 298 343 25,300 -1,080 Descending Oakland Center
12:13AM 36.4061 -121.8731 348° North 297 342 24,300 -1,380 Descending Oakland Center
12:14AM 36.5000 -121.9006 347° North 290 334 22,500 -1,680 Descending Oakland Center
12:15AM 36.5767 -121.9208 348° North 283 326 20,900 -1,620 Descending Oakland Center
12:16AM 36.6519 -121.9400 348° North 276 318 19,300 -1,620 Descending Oakland Center
12:17AM 36.7000 -121.9500 351° North 292 336 18,500 -1,740 Descending Northern Cal TRACON
12:18AM 36.7667 -121.9667 349° North 292 336 16,900 -1,740 Descending Northern Cal TRACON
12:19AM 36.8500 -121.9833 351° North 284 327 15,300 -1,620 Descending Northern Cal TRACON
12:19AM 36.8883 -122.0008 340° North 283 326 14,300 -1,500 Descending Oakland Center
12:20AM 36.9622 -122.0192 349° North 274 315 12,800 -1,140 Descending Oakland Center
12:21AM 37.0358 -122.0397 347° North 270 311 12,000 -720 Descending Oakland Center
12:22AM 37.1058 -122.0575 349° North 259 298 11,400 -960 Descending Oakland Center
12:23AM 37.1689 -122.0747 348° North 235 270 10,100 -720 Descending Oakland Center
12:24AM 37.2150 -122.1044 333° Northwest 196 226 10,000 -420 Descending Oakland Center
12:25AM 37.2347 -122.1794 288° West 183 211 9,300 -720 Descending Oakland Center
12:26AM 37.2531 -122.2436 290° West 192 221 8,600 -780 Descending Oakland Center
12:27AM 37.2686 -122.3061 287° West 188 216 7,800 -840 Descending Oakland Center
12:28AM 37.2825 -122.3594 288° West 167 192 6,900 -960 Descending Oakland Center
12:29AM 37.3317 -122.3386 19° North 201 231 5,900 -540 Descending Oakland Center
12:30AM 37.3806 -122.3081 26° Northeast 199 229 5,900  Level Oakland Center
12:31AM 37.4275 -122.2769 28° Northeast 194 223 5,900  Level Oakland Center
12:32AM 37.4714 -122.2325 39° Northeast 209 241 5,900 -180 Level Oakland Center
12:33AM 37.4517 -122.1567 108° East 226 260 5,600 -660 Descending Oakland Center
12:34AM 37.4239 -122.0811 115° Southeast 234 269 4,600 -840 Descending Oakland Center
12:35AM 37.4578 -122.0339 48° Northeast 209 241 4,000 -300 Descending Oakland Center
12:37AM 37.4886 -122.0697 317° Northwest 179 206 4,000  Level Oakland Center
12:38AM 37.5133 -122.1286 298° West 163 188 4,000 -420 Level Oakland Center
12:39AM 37.5333 -122.1753 298° West 157 181 3,200 -840 Descending Oakland Center
12:40AM 37.5517 -122.2189 298° West 150 173 2,400 -780 Descending Oakland Center
12:41AM 37.5692 -122.2619 297° West 143 165 1,700 -780 Descending Oakland Center
12:42AM 37.5881 -122.3058 299° West 142 163 900 -780 Descending Oakland Center
12:43AM 37.6058 -122.3486 298° West 140 161 200 -720 Descending Oakland Center